Time;durP1;ratioP1;P1;durP2;ratioP2;P2;SDS_P1;SDS_P2;PMS_P1;PMS_P2;Temp;Humidity;BMP_temperature;BMP_pressure;BME280_temperature;BME280_humidity;BME280_pressure;Samples;Min_cycle;Max_cycle;Signal;HPM_P1;HPM_P2
2023/10/06 01:39:18;;;;;;;5.07;4.57;;;23.50;71.90;;;;;;5179096;27;20772;-52
2023/10/06 01:41:47;;;;;;;5.88;4.43;;;23.50;71.70;;;;;;5153002;27;20022;-53
2023/10/06 01:44:17;;;;;;;5.30;4.68;;;23.50;71.50;;;;;;5159775;27;20027;-52
2023/10/06 01:46:44;;;;;;;5.13;4.32;;;23.50;71.30;;;;;;5170614;27;20031;-52
2023/10/06 01:49:11;;;;;;;5.35;4.57;;;23.60;71.10;;;;;;5158289;27;20034;-53
2023/10/06 01:51:40;;;;;;;5.10;4.60;;;23.50;70.80;;;;;;5179975;27;20034;-53
2023/10/06 01:54:12;;;;;;;5.18;4.68;;;23.60;70.70;;;;;;5174230;27;20044;-52
2023/10/06 01:56:42;;;;;;;5.63;4.78;;;23.60;70.50;;;;;;5152731;27;20038;-49
2023/10/06 01:59:12;;;;;;;5.30;4.80;;;23.60;70.30;;;;;;5161102;27;20653;-52
2023/10/06 02:01:40;;;;;;;5.32;4.82;;;23.60;70.00;;;;;;5133295;27;20133;-51
2023/10/06 02:04:14;;;;;;;5.25;4.75;;;23.60;70.00;;;;;;5160905;27;20019;-50
2023/10/06 02:06:44;;;;;;;5.50;4.65;;;23.60;69.80;;;;;;5172916;27;20031;-52
2023/10/06 02:09:25;;;;;;;5.10;4.65;;;23.60;69.70;;;;;;5164899;27;20027;-52
2023/10/06 02:11:53;;;;;;;5.82;4.53;;;23.60;69.60;;;;;;5159088;27;20057;-52
2023/10/06 02:14:20;;;;;;;5.35;4.85;;;23.60;69.70;;;;;;5163960;27;20029;-53
2023/10/06 02:16:46;;;;;;;5.25;4.75;;;23.50;69.60;;;;;;5142787;27;20037;-52
2023/10/06 02:19:16;;;;;;;5.73;4.77;;;23.50;69.60;;;;;;5172858;27;20059;-51
2023/10/06 02:21:43;;;;;;;4.68;4.28;;;23.50;69.50;;;;;;5159287;27;20080;-54
2023/10/06 02:24:09;;;;;;;5.13;4.50;;;23.50;69.60;;;;;;5161182;27;20471;-53
2023/10/06 02:26:38;;;;;;;6.65;4.80;;;23.50;69.40;;;;;;5163500;27;20048;-50
2023/10/06 02:29:22;;;;;;;5.63;4.97;;;23.50;69.50;;;;;;5166659;27;20034;-51
2023/10/06 02:31:52;;;;;;;5.25;4.45;;;23.50;69.30;;;;;;5150354;27;20053;-52
2023/10/06 02:34:39;;;;;;;4.40;4.00;;;23.50;69.30;;;;;;5150463;27;20039;-53
2023/10/06 02:37:06;;;;;;;4.93;4.38;;;23.50;69.30;;;;;;5170155;27;20519;-49
2023/10/06 02:39:34;;;;;;;5.22;4.68;;;23.50;69.30;;;;;;5160424;27;20038;-49
2023/10/06 02:42:07;;;;;;;5.95;4.68;;;23.50;69.30;;;;;;5152049;27;20035;-50
2023/10/06 02:44:38;;;;;;;4.97;4.47;;;23.50;69.20;;;;;;5126542;27;20035;-51
2023/10/06 02:47:11;;;;;;;5.30;4.53;;;23.50;69.30;;;;;;5146768;27;20037;-53
2023/10/06 02:49:40;;;;;;;5.47;4.50;;;23.50;69.40;;;;;;5155288;27;20135;-50
2023/10/06 02:52:20;;;;;;;4.95;4.45;;;23.50;69.20;;;;;;5139323;27;20039;-49
2023/10/06 02:55:20;;;;;;;5.22;4.72;;;23.50;69.30;;;;;;5128586;27;20031;-52
2023/10/06 02:57:41;;;;;;;5.07;4.57;;;23.40;69.30;;;;;;5135134;27;20046;-50
2023/10/06 03:02:56;;;;;;;4.22;3.83;;;23.40;69.20;;;;;;5154472;27;20052;-53
2023/10/06 03:05:39;;;;;;;5.30;4.80;;;23.40;69.20;;;;;;5139409;27;20030;-53
2023/10/06 03:08:08;;;;;;;5.90;4.72;;;23.40;69.20;;;;;;5151917;27;20095;-49
2023/10/06 03:10:42;;;;;;;4.80;4.20;;;23.40;69.20;;;;;;5152149;27;20023;-51
2023/10/06 03:13:10;;;;;;;5.25;4.75;;;23.40;69.20;;;;;;5135544;27;20508;-49
2023/10/06 03:15:45;;;;;;;5.03;4.53;;;23.40;69.20;;;;;;5141675;27;20019;-50
2023/10/06 03:18:15;;;;;;;5.10;4.60;;;23.40;69.30;;;;;;5143644;27;20080;-49
2023/10/06 03:20:47;;;;;;;6.32;4.40;;;23.40;69.30;;;;;;5142255;27;20025;-49
2023/10/06 03:23:27;;;;;;;5.00;4.50;;;23.30;69.20;;;;;;5157425;27;20025;-53
2023/10/06 03:25:54;;;;;;;5.85;4.30;;;23.30;69.20;;;;;;5133925;27;20084;-51
2023/10/06 03:28:25;;;;;;;6.82;4.80;;;23.30;69.20;;;;;;5137949;27;20091;-50
2023/10/06 03:30:52;;;;;;;4.45;4.05;;;23.30;69.30;;;;;;5141261;27;20039;-50
2023/10/06 03:33:21;;;;;;;5.80;4.53;;;23.30;69.30;;;;;;5138181;27;20038;-51
2023/10/06 03:35:50;;;;;;;5.40;4.63;;;23.30;69.20;;;;;;5131687;27;20034;-51
2023/10/06 03:46:10;;;;;;;4.85;4.35;;;23.30;69.40;;;;;;5152291;27;20084;-54
2023/10/06 03:48:38;;;;;;;4.95;4.53;;;23.30;69.40;;;;;;5159884;27;20050;-54
2023/10/06 03:51:05;;;;;;;5.57;4.35;;;23.30;69.40;;;;;;5147990;27;20091;-55
2023/10/06 03:53:32;;;;;;;4.78;4.38;;;23.30;69.40;;;;;;5144526;27;20087;-53
2023/10/06 03:55:59;;;;;;;5.18;4.55;;;23.20;69.40;;;;;;5145800;27;20023;-52
2023/10/06 03:58:28;;;;;;;5.22;4.72;;;23.20;69.50;;;;;;5144237;27;20042;-51
2023/10/06 04:00:54;;;;;;;5.40;4.60;;;23.20;69.40;;;;;;5149176;27;20030;-50
2023/10/06 04:03:21;;;;;;;5.13;4.57;;;23.20;69.40;;;;;;5154599;27;20022;-50
2023/10/06 04:05:48;;;;;;;6.43;4.85;;;23.20;69.40;;;;;;5145480;27;20034;-51
2023/10/06 04:08:16;;;;;;;4.75;4.35;;;23.20;69.40;;;;;;5145039;27;20074;-52
2023/10/06 04:10:45;;;;;;;5.07;4.57;;;23.20;69.40;;;;;;5161079;27;20023;-55
2023/10/06 04:13:12;;;;;;;5.35;4.55;;;23.20;69.50;;;;;;5137576;27;20060;-53
2023/10/06 04:15:38;;;;;;;5.50;4.93;;;23.20;69.60;;;;;;5140208;27;20072;-55
2023/10/06 04:18:10;;;;;;;5.47;4.65;;;23.20;69.60;;;;;;5151817;27;20026;-55
2023/10/06 04:20:43;;;;;;;5.20;4.43;;;23.20;69.60;;;;;;5143966;27;20030;-52
2023/10/06 04:23:11;;;;;;;5.40;4.80;;;23.20;69.60;;;;;;5126929;27;20030;-52
2023/10/06 04:25:40;;;;;;;6.03;5.20;;;23.20;69.60;;;;;;5138846;27;20501;-52
2023/10/06 04:28:11;;;;;;;5.22;4.70;;;23.10;69.50;;;;;;5138033;27;20052;-52
2023/10/06 04:30:37;;;;;;;5.30;4.80;;;23.10;69.50;;;;;;5135920;27;20080;-52
2023/10/06 04:33:04;;;;;;;5.20;4.72;;;23.10;69.50;;;;;;5158655;27;20058;-51
2023/10/06 04:35:33;;;;;;;5.53;4.70;;;23.10;69.50;;;;;;5153816;27;20039;-52
2023/10/06 04:38:01;;;;;;;5.53;4.93;;;23.20;69.60;;;;;;5144273;27;20049;-54
2023/10/06 04:40:27;;;;;;;;;;;23.10;69.50;;;;;;5145912;27;20440;-52
2023/10/06 04:42:56;;;;;;;5.53;4.50;;;23.10;69.60;;;;;;5137894;27;19915;-54
2023/10/06 04:45:23;;;;;;;5.57;5.03;;;23.10;69.50;;;;;;5126460;27;20030;-56
2023/10/06 04:47:49;;;;;;;;;;;23.10;69.60;;;;;;5136714;27;20391;-53
2023/10/06 04:50:18;;;;;;;5.13;4.63;;;23.10;69.60;;;;;;5134566;27;19971;-53
2023/10/06 04:52:46;;;;;;;5.35;4.65;;;23.10;69.70;;;;;;5155204;27;20034;-55
2023/10/06 04:55:13;;;;;;;5.18;4.65;;;23.10;69.60;;;;;;5139500;27;20035;-51
2023/10/06 04:57:42;;;;;;;5.60;4.85;;;23.10;69.70;;;;;;5135332;27;20019;-53
2023/10/06 05:00:19;;;;;;;7.00;4.88;;;23.10;69.70;;;;;;5142640;27;20039;-52
2023/10/06 05:02:47;;;;;;;5.28;4.57;;;23.00;69.70;;;;;;5147766;27;20493;-52
2023/10/06 05:05:22;;;;;;;5.32;4.75;;;23.00;69.70;;;;;;5154156;27;20059;-53
2023/10/06 05:07:49;;;;;;;5.43;4.88;;;23.00;69.70;;;;;;5120012;27;20046;-53
2023/10/06 05:10:25;;;;;;;5.20;4.68;;;23.00;69.70;;;;;;5145111;27;20772;-53
2023/10/06 05:12:52;;;;;;;5.20;4.70;;;23.00;69.70;;;;;;5133766;27;20044;-53
2023/10/06 05:15:23;;;;;;;4.93;4.43;;;23.00;69.80;;;;;;5156576;27;20460;-54
2023/10/06 05:18:00;;;;;;;5.32;4.82;;;23.00;69.80;;;;;;5135802;27;20031;-54
2023/10/06 05:20:29;;;;;;;5.10;4.60;;;23.00;69.80;;;;;;5135742;27;20031;-56
2023/10/06 05:23:02;;;;;;;5.28;4.68;;;23.00;69.80;;;;;;5133982;27;20395;-53
2023/10/06 05:25:29;;;;;;;5.50;4.95;;;22.90;69.80;;;;;;5134024;27;20031;-54
2023/10/06 05:27:59;;;;;;;;;;;23.00;69.90;;;;;;5121365;28;20039;-53
2023/10/06 05:30:26;;;;;;;5.35;4.85;;;22.90;70.20;;;;;;5135092;27;19912;-55
2023/10/06 05:32:57;;;;;;;5.95;5.15;;;22.90;69.70;;;;;;5123304;28;20031;-53
2023/10/06 05:35:26;;;;;;;5.43;4.93;;;22.90;69.70;;;;;;5123531;27;20031;-52
2023/10/06 05:37:53;;;;;;;5.65;5.05;;;22.90;69.80;;;;;;5127078;27;20032;-53
2023/10/06 05:40:20;;;;;;;5.03;4.53;;;22.90;69.90;;;;;;5141238;27;20034;-53
2023/10/06 05:42:50;;;;;;;;;;;22.90;69.80;;;;;;5138918;27;20027;-53
2023/10/06 05:45:18;;;;;;;5.18;4.68;;;22.90;69.80;;;;;;5150031;27;19939;-53
2023/10/06 05:47:51;;;;;;;5.97;5.13;;;22.90;69.90;;;;;;5138653;27;20073;-54
2023/10/06 05:50:27;;;;;;;5.13;4.63;;;22.90;69.80;;;;;;5146395;27;20027;-54
2023/10/06 05:53:08;;;;;;;5.30;4.80;;;22.90;69.90;;;;;;5138336;28;20126;-53
2023/10/06 05:55:35;;;;;;;4.90;4.40;;;22.90;69.90;;;;;;5142872;27;20027;-54
2023/10/06 05:58:14;;;;;;;5.40;4.80;;;22.90;69.90;;;;;;5137078;28;20051;-53
2023/10/06 06:00:50;;;;;;;5.50;4.90;;;22.80;69.90;;;;;;5143344;27;20039;-53
2023/10/06 06:03:20;;;;;;;5.43;4.93;;;22.90;70.00;;;;;;5150772;27;20027;-52
2023/10/06 06:05:48;;;;;;;5.40;4.88;;;22.80;69.90;;;;;;5139430;27;20034;-54
2023/10/06 06:08:14;;;;;;;5.45;4.95;;;22.80;69.90;;;;;;5146698;27;20031;-54
2023/10/06 06:10:41;;;;;;;5.30;4.80;;;22.80;69.90;;;;;;5144496;27;20050;-54
2023/10/06 06:13:07;;;;;;;4.97;4.43;;;22.80;70.30;;;;;;5149760;27;20063;-54
2023/10/06 06:15:35;;;;;;;5.13;4.63;;;22.80;70.00;;;;;;5146942;27;20038;-54
2023/10/06 06:18:01;;;;;;;5.05;4.55;;;22.80;70.00;;;;;;5143904;27;20039;-54
2023/10/06 06:20:30;;;;;;;5.17;4.67;;;22.80;70.00;;;;;;5147675;27;20055;-54
2023/10/06 06:22:59;;;;;;;5.30;4.80;;;22.80;70.10;;;;;;5126636;27;20078;-54
2023/10/06 06:25:29;;;;;;;5.22;4.72;;;22.80;70.00;;;;;;5140695;27;20023;-52
2023/10/06 06:27:55;;;;;;;5.30;4.80;;;22.80;70.00;;;;;;5152887;27;20037;-53
2023/10/06 06:30:24;;;;;;;5.88;5.28;;;22.80;70.00;;;;;;5157233;27;20072;-53
2023/10/06 06:32:50;;;;;;;5.72;5.13;;;22.80;70.00;;;;;;5153959;27;20079;-53
2023/10/06 06:35:19;;;;;;;5.43;4.93;;;22.80;70.00;;;;;;5128219;27;20019;-53
2023/10/06 06:37:51;;;;;;;5.35;4.85;;;22.80;70.00;;;;;;5139280;27;20085;-55
2023/10/06 06:40:21;;;;;;;5.60;5.00;;;22.80;70.00;;;;;;5147703;27;20027;-52
2023/10/06 06:42:53;;;;;;;6.32;5.35;;;22.80;70.10;;;;;;5121311;27;20042;-53
2023/10/06 06:45:24;;;;;;;5.60;5.10;;;22.70;70.00;;;;;;5145592;27;20168;-53
2023/10/06 06:47:50;;;;;;;5.68;5.07;;;22.70;70.10;;;;;;5136163;27;20035;-52
2023/10/06 06:50:17;;;;;;;5.78;5.20;;;22.70;70.00;;;;;;5146553;27;20114;-52
2023/10/06 06:52:44;;;;;;;5.03;4.53;;;22.70;70.10;;;;;;5150577;27;20086;-53
2023/10/06 06:55:13;;;;;;;5.20;4.70;;;22.70;70.10;;;;;;5157262;27;20023;-54
2023/10/06 06:57:43;;;;;;;5.20;4.70;;;22.70;70.10;;;;;;5121123;27;20031;-52
2023/10/06 07:00:16;;;;;;;6.00;5.40;;;22.70;70.80;;;;;;5146467;27;20114;-51
2023/10/06 07:02:46;;;;;;;5.13;4.63;;;22.70;70.10;;;;;;5135421;27;20030;-55
2023/10/06 07:05:13;;;;;;;6.03;5.43;;;22.70;70.10;;;;;;5153263;27;20606;-55
2023/10/06 07:07:45;;;;;;;;;;;22.70;70.90;;;;;;5146163;27;20059;-55
2023/10/06 07:10:19;;;;;;;5.60;5.00;;;22.70;70.10;;;;;;5153680;27;19911;-53
2023/10/06 07:12:49;;;;;;;5.20;4.70;;;22.70;70.20;;;;;;5142159;27;20029;-53
2023/10/06 07:15:16;;;;;;;5.60;4.93;;;22.70;70.20;;;;;;5150232;27;20019;-54
2023/10/06 07:17:53;;;;;;;6.25;5.13;;;22.70;70.20;;;;;;5141735;27;20031;-53
2023/10/06 07:20:23;;;;;;;6.55;5.18;;;22.60;70.20;;;;;;5127222;27;20029;-52
2023/10/06 07:22:53;;;;;;;5.40;4.90;;;22.60;70.20;;;;;;5139392;27;20024;-53
2023/10/06 07:25:19;;;;;;;5.85;5.05;;;22.60;70.20;;;;;;5142814;27;20031;-54
2023/10/06 07:27:47;;;;;;;5.07;4.57;;;22.60;70.20;;;;;;5138687;27;20117;-52
2023/10/06 07:30:16;;;;;;;5.85;5.25;;;22.60;70.30;;;;;;5122277;27;20110;-53
2023/10/06 07:32:45;;;;;;;5.57;4.93;;;22.60;70.30;;;;;;5152283;27;20026;-54
2023/10/06 07:35:14;;;;;;;5.78;5.22;;;22.60;70.20;;;;;;5146593;27;20122;-53
2023/10/06 07:37:47;;;;;;;5.43;4.93;;;22.60;70.20;;;;;;5148423;27;20106;-53
2023/10/06 07:40:15;;;;;;;5.05;4.55;;;22.60;70.30;;;;;;5149482;27;20018;-53
2023/10/06 07:42:45;;;;;;;5.18;4.68;;;22.60;70.30;;;;;;5152838;27;20038;-53
2023/10/06 07:45:12;;;;;;;5.70;5.10;;;22.60;70.30;;;;;;5138542;27;20027;-52
2023/10/06 07:47:39;;;;;;;5.00;4.50;;;22.60;70.30;;;;;;5143755;27;20031;-53
2023/10/06 07:50:05;;;;;;;4.30;3.88;;;22.60;70.40;;;;;;5153011;27;20076;-53
2023/10/06 07:52:33;;;;;;;6.22;4.95;;;22.60;70.30;;;;;;5145128;27;20046;-53
2023/10/06 07:55:00;;;;;;;6.00;5.40;;;22.60;70.40;;;;;;5145882;27;20027;-54
2023/10/06 07:57:33;;;;;;;4.00;3.60;;;22.60;70.30;;;;;;5134357;27;20132;-53
2023/10/06 08:00:06;;;;;;;5.35;4.85;;;22.60;70.30;;;;;;5150561;27;20817;-49
2023/10/06 08:02:41;;;;;;;5.18;4.68;;;22.60;70.40;;;;;;5152580;27;20028;-54
2023/10/06 08:05:12;;;;;;;5.30;4.75;;;22.50;70.30;;;;;;5139032;27;20016;-52
2023/10/06 08:07:44;;;;;;;5.95;5.35;;;22.50;70.30;;;;;;5122632;27;20096;-52
2023/10/06 08:10:13;;;;;;;5.90;5.30;;;22.50;70.40;;;;;;5134459;27;20026;-53
2023/10/06 08:12:46;;;;;;;5.45;4.95;;;22.60;70.40;;;;;;5137298;27;20027;-53
2023/10/06 08:15:17;;;;;;;6.20;5.55;;;22.50;70.40;;;;;;5146099;27;20372;-53
2023/10/06 08:17:47;;;;;;;6.25;5.28;;;22.50;70.50;;;;;;5138672;27;20182;-52
2023/10/06 08:20:15;;;;;;;5.32;4.82;;;22.50;71.20;;;;;;5145987;27;20027;-53
2023/10/06 08:22:47;;;;;;;5.50;5.00;;;22.50;70.40;;;;;;5133618;27;20061;-53
2023/10/06 08:25:17;;;;;;;5.72;5.13;;;22.50;70.40;;;;;;5132929;27;20027;-55
2023/10/06 08:27:44;;;;;;;5.30;4.80;;;22.50;70.40;;;;;;5151612;27;20046;-51
2023/10/06 08:30:16;;;;;;;;;;;22.50;70.50;;;;;;5144992;27;20026;-52
2023/10/06 08:32:45;;;;;;;5.88;5.25;;;22.50;70.50;;;;;;5154473;27;19911;-53
2023/10/06 08:35:15;;;;;;;6.43;5.47;;;22.50;70.50;;;;;;5129989;27;20031;-54
2023/10/06 08:37:45;;;;;;;6.22;5.30;;;22.50;70.50;;;;;;5143163;27;20043;-51
2023/10/06 08:40:19;;;;;;;6.28;5.13;;;22.50;71.20;;;;;;5160030;27;20083;-54
2023/10/06 08:42:49;;;;;;;6.22;5.10;;;22.50;70.50;;;;;;5155084;27;20030;-53
2023/10/06 08:45:22;;;;;;;5.90;5.22;;;22.50;70.60;;;;;;5121882;27;20033;-51
2023/10/06 08:47:52;;;;;;;5.35;4.85;;;22.40;70.50;;;;;;5124528;27;20077;-54
2023/10/06 08:50:27;;;;;;;5.28;4.75;;;22.40;70.50;;;;;;5154249;27;20057;-55
2023/10/06 08:52:54;;;;;;;5.68;4.97;;;22.40;70.50;;;;;;5140320;27;20079;-53
2023/10/06 08:55:22;;;;;;;6.00;5.40;;;22.40;70.50;;;;;;5137376;27;20035;-54
2023/10/06 08:57:50;;;;;;;5.05;4.55;;;22.40;70.60;;;;;;5144257;27;20057;-53
2023/10/06 09:00:26;;;;;;;6.25;5.57;;;22.40;70.50;;;;;;5132438;27;20029;-53
2023/10/06 09:02:54;;;;;;;6.15;5.45;;;22.40;70.50;;;;;;5138911;27;20036;-53
2023/10/06 09:05:21;;;;;;;6.00;5.40;;;22.40;70.50;;;;;;5139547;27;20023;-53
2023/10/06 09:08:04;;;;;;;5.38;4.78;;;22.40;70.60;;;;;;5139879;27;20087;-56
2023/10/06 09:10:32;;;;;;;5.97;5.38;;;22.40;70.60;;;;;;5145269;27;20099;-50
2023/10/06 09:13:02;;;;;;;5.78;5.18;;;22.40;70.60;;;;;;5139143;27;20030;-55
2023/10/06 09:15:31;;;;;;;5.65;5.05;;;22.40;70.60;;;;;;5145426;27;20054;-54
2023/10/06 09:17:58;;;;;;;6.07;4.90;;;22.40;70.70;;;;;;5153586;27;20030;-53
2023/10/06 09:20:32;;;;;;;6.05;5.45;;;22.40;70.70;;;;;;5146368;27;20023;-53
2023/10/06 09:23:01;;;;;;;5.88;4.45;;;22.30;70.70;;;;;;5154225;27;20094;-54
2023/10/06 09:25:29;;;;;;;5.45;4.95;;;22.30;70.70;;;;;;5142516;27;20027;-53
2023/10/06 09:28:03;;;;;;;5.45;4.95;;;22.30;70.70;;;;;;5118794;28;20048;-54
2023/10/06 09:30:30;;;;;;;5.57;4.97;;;22.30;70.70;;;;;;5125994;27;20172;-52
2023/10/06 09:33:04;;;;;;;5.55;4.72;;;22.30;70.70;;;;;;5144229;27;20027;-54
2023/10/06 09:35:30;;;;;;;5.38;4.88;;;22.30;70.70;;;;;;5124240;28;20070;-54
2023/10/06 09:38:16;;;;;;;5.27;4.77;;;22.30;70.70;;;;;;5108107;28;20126;-56
2023/10/06 09:40:46;;;;;;;6.05;5.20;;;22.30;70.70;;;;;;5121034;28;20053;-53
2023/10/06 09:43:15;;;;;;;6.45;5.15;;;22.30;70.70;;;;;;5121123;28;20034;-52
2023/10/06 09:45:42;;;;;;;6.18;5.57;;;22.30;70.80;;;;;;5126391;28;20039;-53
2023/10/06 09:48:15;;;;;;;7.35;5.13;;;22.30;70.70;;;;;;5113226;28;20103;-50
2023/10/06 09:50:50;;;;;;;5.85;5.25;;;22.30;70.70;;;;;;5141170;27;20032;-53
2023/10/06 09:53:16;;;;;;;5.72;5.20;;;22.30;70.80;;;;;;5116692;28;20038;-54
2023/10/06 09:55:43;;;;;;;5.68;4.78;;;22.30;70.80;;;;;;5136360;27;20049;-54
2023/10/06 09:58:09;;;;;;;6.32;5.47;;;22.30;70.80;;;;;;5138495;27;20019;-53
2023/10/06 10:00:39;;;;;;;5.50;4.90;;;22.30;70.90;;;;;;5131557;27;20034;-52
2023/10/06 10:03:12;;;;;;;5.68;5.10;;;22.20;70.80;;;;;;5123936;27;20043;-50
2023/10/06 10:05:39;;;;;;;5.13;4.63;;;22.30;70.80;;;;;;5124062;27;20032;-53
2023/10/06 10:08:08;;;;;;;6.78;5.63;;;22.30;70.90;;;;;;5137094;27;20091;-52
2023/10/06 10:10:36;;;;;;;4.85;4.43;;;22.20;70.80;;;;;;5123354;27;20031;-50
2023/10/06 10:13:19;;;;;;;5.47;4.97;;;22.20;70.90;;;;;;5137589;27;20508;-51
2023/10/06 10:15:50;;;;;;;6.00;5.00;;;22.20;70.80;;;;;;5127194;27;20027;-53
2023/10/06 10:18:29;;;;;;;6.50;5.65;;;22.20;70.80;;;;;;5125091;28;20051;-51
2023/10/06 10:20:59;;;;;;;6.95;5.40;;;22.20;70.80;;;;;;5126494;27;20024;-52
2023/10/06 10:23:31;;;;;;;5.40;4.90;;;22.20;70.80;;;;;;5125416;27;20036;-53
2023/10/06 10:26:18;;;;;;;5.35;4.85;;;22.20;70.80;;;;;;5137430;27;20029;-53
2023/10/06 10:29:05;;;;;;;5.60;5.10;;;22.20;70.90;;;;;;5128519;27;20035;-51
2023/10/06 10:31:41;;;;;;;5.70;5.03;;;22.20;70.90;;;;;;5062464;28;20048;-53
2023/10/06 10:34:08;;;;;;;5.85;5.10;;;22.20;70.90;;;;;;5063283;28;20130;-51
2023/10/06 10:36:35;;;;;;;5.30;4.80;;;22.20;70.90;;;;;;5062598;28;20051;-51
2023/10/06 10:39:41;;;;;;;5.53;5.03;;;22.20;71.00;;;;;;5063001;28;20057;-51
2023/10/06 10:42:07;;;;;;;6.07;4.82;;;22.10;71.00;;;;;;5045004;28;20033;-52
2023/10/06 10:44:36;;;;;;;5.47;4.97;;;22.10;71.00;;;;;;5038974;28;20110;-52
2023/10/06 10:47:03;;;;;;;6.15;5.00;;;22.10;70.90;;;;;;5065010;28;20043;-54
2023/10/06 10:49:32;;;;;;;;;;;22.10;71.00;;;;;;5024471;28;20107;-52
2023/10/06 10:52:05;;;;;;;5.60;4.93;;;22.10;71.00;;;;;;5046394;28;19913;-52
2023/10/06 10:54:33;;;;;;;5.47;4.95;;;22.10;71.00;;;;;;5062777;28;20037;-51
2023/10/06 10:57:14;;;;;;;6.07;5.47;;;22.10;70.90;;;;;;5062719;28;20535;-53
2023/10/06 11:00:12;;;;;;;5.55;4.97;;;22.10;71.00;;;;;;5054590;28;20087;-53
2023/10/06 11:02:50;;;;;;;5.30;4.80;;;22.10;71.00;;;;;;5062112;28;20075;-53
2023/10/06 11:05:20;;;;;;;5.60;5.00;;;22.10;71.00;;;;;;5063153;28;20277;-54
2023/10/06 11:07:56;;;;;;;5.72;5.13;;;22.10;71.10;;;;;;5058740;28;20059;-51
2023/10/06 11:10:23;;;;;;;5.70;5.20;;;22.10;71.10;;;;;;5095927;28;20084;-54
2023/10/06 11:13:08;;;;;;;5.68;5.18;;;22.10;71.10;;;;;;5099941;28;20036;-53
2023/10/06 11:15:34;;;;;;;5.53;5.03;;;22.10;71.20;;;;;;5120002;27;20391;-53
2023/10/06 11:18:00;;;;;;;5.07;4.57;;;22.10;71.10;;;;;;5095438;28;20025;-54
2023/10/06 11:20:33;;;;;;;5.75;4.90;;;22.10;71.10;;;;;;5104672;28;20096;-53
2023/10/06 11:23:00;;;;;;;5.93;5.32;;;22.10;71.20;;;;;;5105587;28;20028;-52
2023/10/06 11:25:30;;;;;;;;;;;22.00;71.20;;;;;;5099370;28;20032;-54
2023/10/06 11:28:02;;;;;;;6.07;5.22;;;22.00;71.20;;;;;;5104438;28;20010;-53
2023/10/06 11:30:31;;;;;;;5.82;5.28;;;22.00;71.10;;;;;;5107452;28;20028;-53
2023/10/06 11:32:57;;;;;;;6.05;5.32;;;22.00;71.10;;;;;;5111322;28;20036;-51
2023/10/06 11:35:24;;;;;;;6.17;5.17;;;22.00;71.10;;;;;;5112320;28;20023;-51
2023/10/06 11:37:50;;;;;;;6.15;5.22;;;22.10;71.20;;;;;;5131343;27;20039;-50
2023/10/06 11:40:17;;;;;;;5.68;5.13;;;22.00;71.10;;;;;;5128139;27;20035;-51
2023/10/06 11:42:43;;;;;;;5.53;4.93;;;22.00;71.20;;;;;;5134593;27;20023;-53
2023/10/06 11:45:24;;;;;;;6.13;5.45;;;22.00;71.20;;;;;;5146075;27;20050;-55
2023/10/06 11:47:51;;;;;;;5.75;5.15;;;22.00;71.20;;;;;;5131964;27;20090;-52
2023/10/06 11:50:22;;;;;;;5.32;4.55;;;22.00;71.30;;;;;;5135296;27;20019;-55
2023/10/06 11:52:49;;;;;;;5.68;5.07;;;22.00;71.30;;;;;;5138689;27;20035;-54
2023/10/06 11:55:37;;;;;;;5.72;5.13;;;22.00;71.30;;;;;;5141167;27;20034;-53
2023/10/06 11:58:04;;;;;;;;;;;22.00;71.30;;;;;;5130255;27;20022;-53
2023/10/06 12:00:35;;;;;;;6.23;5.40;;;22.00;71.30;;;;;;5141701;27;19915;-55
2023/10/06 12:03:01;;;;;;;6.50;5.30;;;22.00;71.30;;;;;;5145638;27;20019;-53
2023/10/06 12:05:27;;;;;;;6.00;5.40;;;22.00;71.40;;;;;;5144332;27;20027;-54
2023/10/06 12:07:53;;;;;;;5.25;4.75;;;22.00;71.30;;;;;;5150189;27;20054;-52
2023/10/06 12:10:21;;;;;;;5.10;4.60;;;22.00;71.40;;;;;;5120509;27;20083;-55
2023/10/06 12:12:50;;;;;;;5.80;4.93;;;21.90;71.50;;;;;;5148202;27;20027;-53
2023/10/06 12:15:17;;;;;;;5.78;5.25;;;22.00;71.50;;;;;;5139968;27;20038;-53
2023/10/06 12:17:43;;;;;;;5.37;4.87;;;21.90;71.50;;;;;;5119831;27;20022;-53
2023/10/06 12:20:15;;;;;;;6.18;4.93;;;22.00;71.50;;;;;;5138882;27;20023;-53
2023/10/06 12:22:42;;;;;;;6.25;5.07;;;21.90;71.50;;;;;;5134730;27;20095;-54
2023/10/06 12:25:11;;;;;;;;;;;21.90;71.40;;;;;;5149475;27;20029;-52
2023/10/06 12:27:40;;;;;;;5.97;4.80;;;21.90;71.50;;;;;;5152634;27;19939;-54
2023/10/06 12:30:07;;;;;;;6.03;5.20;;;21.90;71.50;;;;;;5139897;27;20039;-55
2023/10/06 12:32:35;;;;;;;5.80;5.05;;;21.90;71.50;;;;;;5145467;27;20157;-53
2023/10/06 12:35:08;;;;;;;6.75;5.75;;;21.90;71.50;;;;;;5148730;27;20031;-55
2023/10/06 12:37:40;;;;;;;5.45;4.95;;;21.90;71.60;;;;;;5153546;27;20055;-54
2023/10/06 12:40:10;;;;;;;6.28;5.30;;;21.90;71.50;;;;;;5155967;27;20029;-55
2023/10/06 12:42:38;;;;;;;6.03;5.43;;;21.90;71.60;;;;;;5149784;27;20023;-56
2023/10/06 12:45:08;;;;;;;6.07;5.43;;;21.90;71.60;;;;;;5125134;27;20411;-54
2023/10/06 12:47:34;;;;;;;5.47;4.80;;;21.90;71.60;;;;;;5133756;27;20054;-56
2023/10/06 12:50:05;;;;;;;6.00;5.43;;;21.90;71.60;;;;;;5141967;27;20047;-53
2023/10/06 12:52:37;;;;;;;5.45;4.95;;;21.90;71.60;;;;;;5137659;27;20054;-55
2023/10/06 12:55:10;;;;;;;5.55;4.97;;;21.90;71.60;;;;;;5143272;27;20026;-53
2023/10/06 12:57:42;;;;;;;5.60;5.00;;;21.80;71.60;;;;;;5157111;27;20023;-55
2023/10/06 13:00:09;;;;;;;5.80;5.20;;;21.90;71.60;;;;;;5117168;28;20108;-53
2023/10/06 13:02:35;;;;;;;6.03;5.30;;;21.80;71.60;;;;;;5152996;27;20031;-53
2023/10/06 13:05:08;;;;;;;5.53;5.03;;;21.90;71.60;;;;;;5155077;27;20037;-52
2023/10/06 13:07:37;;;;;;;6.10;5.38;;;21.90;71.70;;;;;;5152397;27;20043;-53
2023/10/06 13:10:06;;;;;;;5.88;5.25;;;21.80;71.60;;;;;;5151611;27;20023;-52
2023/10/06 13:12:41;;;;;;;4.85;4.45;;;21.80;71.60;;;;;;5151745;27;20043;-50
2023/10/06 13:15:17;;;;;;;6.93;5.25;;;21.90;71.60;;;;;;5151063;27;20077;-53
2023/10/06 13:17:48;;;;;;;5.28;4.78;;;21.90;71.70;;;;;;5136250;27;20446;-51
2023/10/06 13:20:15;;;;;;;5.25;4.75;;;21.80;72.10;;;;;;5140340;27;20026;-53
2023/10/06 13:22:41;;;;;;;5.20;4.68;;;21.80;71.60;;;;;;5147315;27;20027;-53
2023/10/06 13:25:09;;;;;;;5.07;4.57;;;21.80;71.60;;;;;;5155488;27;20027;-52
2023/10/06 13:27:36;;;;;;;6.38;5.05;;;21.80;71.60;;;;;;5156067;27;20288;-52
2023/10/06 13:30:06;;;;;;;5.60;4.78;;;21.80;71.60;;;;;;5124949;28;20033;-52
2023/10/06 13:32:36;;;;;;;5.07;4.57;;;21.80;71.60;;;;;;5150418;27;20035;-51
2023/10/06 13:35:11;;;;;;;5.57;4.93;;;21.80;71.60;;;;;;5143401;27;20031;-52
2023/10/06 13:37:40;;;;;;;5.60;5.00;;;21.80;71.60;;;;;;5145690;27;20069;-53
2023/10/06 13:40:11;;;;;;;5.85;5.25;;;21.80;71.60;;;;;;5144233;27;20027;-53
2023/10/06 13:42:45;;;;;;;5.88;4.78;;;21.80;71.70;;;;;;5122189;27;20628;-54
2023/10/06 13:45:17;;;;;;;5.13;4.22;;;21.80;71.60;;;;;;5142572;28;20030;-54
2023/10/06 13:47:47;;;;;;;5.13;4.60;;;21.80;71.60;;;;;;5119253;28;20099;-52
2023/10/06 13:50:14;;;;;;;6.43;5.40;;;21.80;71.70;;;;;;5110391;28;20030;-54
2023/10/06 13:52:41;;;;;;;5.50;5.00;;;21.80;71.60;;;;;;5130573;27;20022;-52
2023/10/06 13:55:10;;;;;;;5.30;4.80;;;21.80;71.70;;;;;;5140580;27;20031;-52
2023/10/06 13:57:37;;;;;;;5.20;4.70;;;21.80;71.70;;;;;;5142357;27;20043;-52
2023/10/06 14:00:17;;;;;;;5.97;4.78;;;21.80;71.60;;;;;;5122236;28;20024;-51
2023/10/06 14:02:49;;;;;;;5.30;4.80;;;21.80;71.70;;;;;;5134522;27;20121;-52
2023/10/06 14:05:18;;;;;;;5.47;4.90;;;21.80;71.80;;;;;;5142150;27;20035;-54
2023/10/06 14:07:45;;;;;;;5.40;4.90;;;21.80;71.70;;;;;;5149803;27;20038;-51
2023/10/06 14:10:16;;;;;;;5.22;4.72;;;21.80;71.70;;;;;;5150844;27;20026;-54
2023/10/06 14:12:56;;;;;;;6.28;5.05;;;21.80;71.70;;;;;;5140306;27;20040;-51
2023/10/06 14:15:44;;;;;;;5.65;5.13;;;21.80;71.70;;;;;;5031584;28;20475;-52
2023/10/06 14:18:16;;;;;;;5.28;4.47;;;21.80;71.80;;;;;;5032124;28;20072;-53
2023/10/06 14:20:49;;;;;;;5.75;4.90;;;21.80;71.70;;;;;;5031871;28;20034;-53
2023/10/06 14:23:18;;;;;;;5.47;4.97;;;21.80;71.80;;;;;;5038677;28;20033;-52
2023/10/06 14:25:44;;;;;;;4.97;4.50;;;21.80;71.90;;;;;;5028618;28;20039;-50
2023/10/06 14:28:11;;;;;;;5.82;5.05;;;21.80;71.90;;;;;;5020877;28;20582;-51
2023/10/06 14:30:44;;;;;;;5.78;5.00;;;21.80;71.90;;;;;;5021561;28;20030;-50
2023/10/06 14:46:36;;;;;;;5.30;4.80;;;21.90;72.10;;;;;;5032049;28;20048;-51
2023/10/06 14:49:14;;;;;;;5.18;4.68;;;21.90;72.20;;;;;;5037401;28;20552;-53
2023/10/06 14:51:41;;;;;;;;;;;21.90;72.10;;;;;;5048934;28;20860;-54
2023/10/06 14:54:13;;;;;;;5.63;5.03;;;21.90;72.20;;;;;;5127137;27;19911;-54
2023/10/06 14:56:39;;;;;;;5.32;4.82;;;21.90;72.30;;;;;;5165023;27;20035;-54
2023/10/06 14:59:08;;;;;;;4.93;4.50;;;21.90;72.30;;;;;;5156494;27;20027;-52
2023/10/06 15:01:34;;;;;;;5.32;4.82;;;21.90;72.40;;;;;;5146426;27;20035;-53
2023/10/06 15:04:01;;;;;;;4.82;4.32;;;21.90;72.40;;;;;;5151820;27;20094;-53
2023/10/06 15:06:27;;;;;;;5.00;4.20;;;21.90;72.40;;;;;;5155495;27;20466;-53
2023/10/06 15:08:54;;;;;;;5.45;4.95;;;21.90;72.50;;;;;;5146672;27;20051;-51